createdAt,value
2019-01-22T00:01:02.864Z,107.50
2019-01-22T00:03:34.918Z,104.43
2019-01-22T00:06:04.501Z,103.73
2019-01-22T00:08:36.296Z,102.53
2019-01-22T00:11:09.577Z,95.00
2019-01-22T00:13:44.426Z,94.77
2019-01-22T00:16:14.809Z,94.73
2019-01-22T00:18:44.321Z,97.40
2019-01-22T00:21:16.299Z,103.87
2019-01-22T00:23:46.226Z,107.63
2019-01-22T00:26:17.850Z,117.03
2019-01-22T00:28:48.900Z,98.63
2019-01-22T00:31:19.971Z,100.47
2019-01-22T00:33:49.404Z,95.37
2019-01-22T00:36:21.134Z,96.47
2019-01-22T00:38:50.588Z,101.47
2019-01-22T00:41:20.386Z,113.40
2019-01-22T00:43:52.549Z,106.77
2019-01-22T00:46:21.945Z,106.40
2019-01-22T00:48:51.368Z,101.53
2019-01-22T00:51:21.448Z,101.57
2019-01-22T00:53:51.706Z,100.10
2019-01-22T00:56:22.112Z,116.97
2019-01-22T00:58:51.512Z,112.90
2019-01-22T01:01:21.507Z,111.00
2019-01-22T01:03:55.402Z,99.93
2019-01-22T01:06:24.753Z,101.58
2019-01-22T01:08:54.734Z,104.80
2019-01-22T01:11:25.601Z,101.90
2019-01-22T01:13:55.013Z,96.05
2019-01-22T01:16:30.240Z,100.82
2019-01-22T01:19:00.521Z,103.50
2019-01-22T01:21:34.775Z,105.77
2019-01-22T01:24:04.242Z,100.07
2019-01-22T01:26:34.527Z,103.57
2019-01-22T01:29:03.872Z,103.23
2019-01-22T01:31:33.679Z,105.70
2019-01-22T01:34:06.447Z,112.53
2019-01-22T01:36:38.510Z,122.23
2019-01-22T01:39:08.347Z,121.07
2019-01-22T01:41:38.268Z,110.70
2019-01-22T01:44:11.166Z,114.20
2019-01-22T01:46:40.561Z,122.50
2019-01-22T01:49:15.828Z,129.27
2019-01-22T01:51:45.220Z,116.33
2019-01-22T01:54:16.357Z,108.35
2019-01-22T01:56:50.358Z,112.70
2019-01-22T01:59:19.753Z,116.90
2019-01-22T02:01:49.152Z,114.60
2019-01-22T02:04:18.586Z,113.83
2019-01-22T02:06:47.960Z,115.37
2019-01-22T02:09:18.502Z,122.30
2019-01-22T02:11:48.318Z,118.50
2019-01-22T02:14:22.805Z,118.67
2019-01-22T02:17:16.003Z,119.77
2019-01-22T02:20:08.286Z,108.90
2019-01-22T02:23:13.728Z,109.50
2019-01-22T02:26:07.373Z,103.32
2019-01-22T02:29:12.919Z,98.60
2019-01-22T02:32:20.593Z,110.37
2019-01-22T02:35:22.008Z,103.20
2019-01-22T02:38:25.564Z,106.83
2019-01-22T02:41:36.751Z,107.10
2019-01-22T02:45:08.879Z,114.55
2019-01-22T02:48:02.733Z,108.92
2019-01-22T02:51:13.222Z,120.08
2019-01-22T02:54:30.973Z,99.90
2019-01-22T02:57:46.933Z,114.93
2019-01-22T03:01:05.785Z,107.78
2019-01-22T03:03:50.146Z,100.18
2019-01-22T03:06:59.992Z,103.87
2019-01-22T03:09:47.296Z,108.20
2019-01-22T03:13:19.333Z,104.78
2019-01-22T03:16:24.448Z,100.00
2019-01-22T03:19:12.653Z,96.37
2019-01-22T03:22:50.245Z,97.80
2019-01-22T03:25:57.872Z,106.97
2019-01-22T03:29:21.862Z,112.93
2019-01-22T03:32:07.852Z,104.60
2019-01-22T03:35:34.110Z,102.83
2019-01-22T03:38:43.934Z,105.77
2019-01-22T03:41:59.308Z,116.03
2019-01-22T03:45:04.866Z,123.43
2019-01-22T03:47:59.052Z,118.70
2019-01-22T03:50:48.008Z,115.77
2019-01-22T03:53:53.530Z,120.87
2019-01-22T03:57:10.923Z,101.38
2019-01-22T03:59:41.547Z,95.43
2019-01-22T04:02:14.334Z,120.60
2019-01-22T04:04:44.616Z,114.37
2019-01-22T04:07:15.611Z,109.10
2019-01-22T04:10:16.593Z,120.30
2019-01-22T04:12:45.950Z,127.27
2019-01-22T04:15:19.648Z,99.15
2019-01-22T04:17:53.736Z,132.67
2019-01-22T04:20:24.720Z,117.00
2019-01-22T04:23:05.357Z,123.40
2019-01-22T04:26:02.636Z,118.93
2019-01-22T04:28:51.690Z,131.10
2019-01-22T04:31:40.246Z,132.90
2019-01-22T04:34:51.464Z,115.60
2019-01-22T04:38:04.624Z,121.53
2019-01-22T04:40:54.193Z,127.72
2019-01-22T04:43:42.654Z,140.13
2019-01-22T04:46:46.592Z,131.40
2019-01-22T04:49:37.267Z,125.50
2019-01-22T04:52:15.649Z,126.83
2019-01-22T04:55:32.717Z,116.90
2019-01-22T04:58:40.382Z,124.25
2019-01-22T05:01:45.517Z,132.00
2019-01-22T05:05:04.356Z,129.07
2019-01-22T05:07:46.516Z,118.53
2019-01-22T05:11:01.076Z,122.65
2019-01-22T05:13:59.916Z,129.27
2019-01-22T05:17:15.198Z,134.10
2019-01-22T05:20:19.507Z,128.87
2019-01-22T05:23:27.810Z,127.23
2019-01-22T05:26:49.486Z,129.33
2019-01-22T05:30:02.429Z,142.63
2019-01-22T05:33:13.200Z,145.87
2019-01-22T05:36:09.558Z,134.33
2019-01-22T05:38:50.553Z,114.77
2019-01-22T05:41:51.845Z,157.27
2019-01-22T05:44:47.079Z,135.05
2019-01-22T05:47:52.258Z,123.40
2019-01-22T05:50:52.496Z,151.10
2019-01-22T05:54:00.116Z,132.95
2019-01-22T05:56:44.680Z,147.20
2019-01-22T05:59:36.793Z,139.47
2019-01-22T06:02:28.203Z,147.87
2019-01-22T06:05:33.750Z,144.17
2019-01-22T06:08:34.504Z,141.65
2019-01-22T06:11:57.141Z,144.03
2019-01-22T06:14:50.521Z,141.87
2019-01-22T06:17:45.621Z,157.13
2019-01-22T06:21:21.903Z,156.57
2019-01-22T06:24:33.691Z,145.17
2019-01-22T06:27:07.284Z,167.80
2019-01-22T06:30:09.320Z,171.60
2019-01-22T06:32:47.952Z,159.97
2019-01-22T06:35:30.945Z,143.80
2019-01-22T06:38:27.599Z,157.90
2019-01-22T06:41:17.685Z,158.40
2019-01-22T06:44:12.574Z,145.10
2019-01-22T06:47:07.985Z,144.47
2019-01-22T06:49:53.165Z,121.60
2019-01-22T06:53:05.167Z,128.90
2019-01-22T06:56:25.491Z,126.35
2019-01-22T06:59:19.537Z,112.37
2019-01-22T07:02:14.890Z,117.03
2019-01-22T07:05:14.612Z,105.43
2019-01-22T07:08:26.211Z,99.05
2019-01-22T07:11:38.652Z,121.33
2019-01-22T07:14:52.527Z,127.60
2019-01-22T07:17:35.427Z,116.22
2019-01-22T07:20:38.273Z,123.47
2019-01-22T07:23:27.405Z,122.43
2019-01-22T07:26:38.119Z,133.00
2019-01-22T07:29:53.452Z,112.13
2019-01-22T07:33:08.525Z,108.07
2019-01-22T07:36:11.872Z,129.77
2019-01-22T07:39:02.700Z,124.63
2019-01-22T07:42:10.380Z,126.83
2019-01-22T07:45:07.032Z,116.77
2019-01-22T07:48:09.617Z,122.10
2019-01-22T07:51:09.862Z,109.60
2019-01-22T07:53:57.972Z,119.17
2019-01-22T07:57:03.895Z,113.73
2019-01-22T08:00:09.069Z,111.87
2019-01-22T08:02:53.231Z,94.20
2019-01-22T08:06:25.181Z,93.20
2019-01-22T08:09:27.548Z,101.85
2019-01-22T08:12:47.089Z,86.70
2019-01-22T08:15:34.357Z,99.85
2019-01-22T08:18:58.882Z,92.53
2019-01-22T08:21:47.972Z,98.10
2019-01-22T08:24:51.400Z,102.12
2019-01-22T08:27:36.097Z,86.12
2019-01-22T08:30:35.685Z,96.17
2019-01-22T08:33:33.778Z,90.35
2019-01-22T08:36:46.995Z,90.55
2019-01-22T08:39:46.371Z,88.47
2019-01-22T08:43:02.365Z,86.67
2019-01-22T08:46:24.312Z,95.65
2019-01-22T08:49:19.012Z,94.03
2019-01-22T08:52:36.240Z,87.57
2019-01-22T08:55:42.422Z,91.50
2019-01-22T08:58:49.082Z,85.33
2019-01-22T09:01:43.461Z,84.83
2019-01-22T09:04:49.008Z,82.57
2019-01-22T09:07:49.444Z,90.27
2019-01-22T09:10:41.254Z,94.63
2019-01-22T09:13:39.361Z,98.77
2019-01-22T09:16:54.916Z,99.40
2019-01-22T09:19:47.681Z,84.60
2019-01-22T09:23:08.474Z,90.42
2019-01-22T09:26:03.889Z,77.57
2019-01-22T09:29:04.930Z,88.47
2019-01-22T09:32:07.024Z,95.85
2019-01-22T09:35:21.140Z,89.23
2019-01-22T09:37:56.596Z,81.97
2019-01-22T09:40:27.090Z,91.53
2019-01-22T09:42:56.672Z,100.97
2019-01-22T09:45:26.085Z,69.82
2019-01-22T09:47:55.600Z,80.47
2019-01-22T09:50:25.877Z,71.53
2019-01-22T09:52:55.479Z,73.03
2019-01-22T09:55:25.373Z,66.17
2019-01-22T09:57:57.411Z,80.07
2019-01-22T10:00:26.781Z,70.90
2019-01-22T10:02:56.241Z,67.00
2019-01-22T10:05:28.642Z,62.25
2019-01-22T10:07:58.086Z,74.05
2019-01-22T10:10:31.356Z,68.97
2019-01-22T10:13:00.736Z,69.30
2019-01-22T10:15:30.120Z,66.75
2019-01-22T10:17:59.509Z,64.50
2019-01-22T10:20:30.577Z,63.58
2019-01-22T10:22:59.948Z,62.90
2019-01-22T10:25:33.839Z,67.17
2019-01-22T10:28:04.640Z,59.70
2019-01-22T10:30:37.799Z,67.75
2019-01-22T10:33:07.856Z,63.92
2019-01-22T10:35:38.130Z,61.00
2019-01-22T10:38:07.504Z,63.70
2019-01-22T10:40:36.976Z,55.93
2019-01-22T10:43:09.357Z,60.20
2019-01-22T10:45:40.405Z,52.78
2019-01-22T10:48:10.862Z,56.40
2019-01-22T10:50:43.433Z,65.50
2019-01-22T10:53:12.732Z,53.20
2019-01-22T10:55:42.113Z,65.55
2019-01-22T10:58:11.664Z,53.87
2019-01-22T11:00:44.219Z,57.17
2019-01-22T11:03:13.732Z,62.97
2019-01-22T11:05:45.849Z,64.42
2019-01-22T11:08:16.251Z,59.50
2019-01-22T11:10:46.117Z,68.70
2019-01-22T11:13:17.833Z,56.02
2019-01-22T11:15:51.183Z,58.60
2019-01-22T11:18:23.252Z,67.80
2019-01-22T11:20:53.325Z,73.90
2019-01-22T11:23:22.720Z,64.13
2019-01-22T11:25:52.984Z,68.67
2019-01-22T11:28:26.406Z,64.37
2019-01-22T11:30:56.389Z,63.97
2019-01-22T11:33:26.497Z,59.43
2019-01-22T11:35:56.882Z,68.30
2019-01-22T11:38:31.979Z,65.93
2019-01-22T11:41:02.199Z,82.33
2019-01-22T11:43:33.522Z,62.53
2019-01-22T11:46:02.972Z,58.30
2019-01-22T11:48:34.741Z,64.00
2019-01-22T11:51:05.110Z,65.85
2019-01-22T11:53:36.070Z,67.12
2019-01-22T11:56:07.683Z,67.83
2019-01-22T11:58:37.012Z,65.07
2019-01-22T12:01:06.751Z,61.27
2019-01-22T12:03:37.040Z,54.90
2019-01-22T12:06:10.159Z,61.83
2019-01-22T12:08:42.541Z,65.83
2019-01-22T12:11:12.521Z,61.77
2019-01-22T12:13:46.549Z,56.70
2019-01-22T12:16:19.851Z,59.67
2019-01-22T12:18:49.481Z,58.73
2019-01-22T12:21:23.248Z,59.10
2019-01-22T12:23:52.632Z,66.80
2019-01-22T12:26:22.730Z,60.30
2019-01-22T12:28:52.097Z,58.50
2019-01-22T12:31:25.794Z,69.72
2019-01-22T12:34:02.012Z,74.47
2019-01-22T12:36:38.639Z,52.70
2019-01-22T12:39:11.358Z,59.13
2019-01-22T12:41:43.165Z,56.80
2019-01-22T12:44:14.607Z,57.43
2019-01-22T12:46:44.047Z,61.87
2019-01-22T12:49:13.436Z,62.83
2019-01-22T12:51:43.649Z,59.30
2019-01-22T12:54:15.594Z,61.60
2019-01-22T12:56:47.865Z,58.93
2019-01-22T12:59:19.007Z,61.88
2019-01-22T13:01:48.983Z,63.33
2019-01-22T13:04:18.326Z,47.27
2019-01-22T13:06:48.241Z,54.03
2019-01-22T13:09:22.050Z,60.50
2019-01-22T13:11:51.904Z,60.10
2019-01-22T13:14:21.340Z,70.55
2019-01-22T13:16:51.056Z,52.83
2019-01-22T13:19:20.578Z,53.80
2019-01-22T13:21:51.031Z,60.97
2019-01-22T13:24:21.632Z,60.43
2019-01-22T13:26:51.964Z,62.53
2019-01-22T13:29:21.317Z,70.28
2019-01-22T13:31:50.988Z,57.93
2019-01-22T13:34:22.808Z,62.50
2019-01-22T13:36:55.768Z,61.45
2019-01-22T13:39:27.740Z,57.38
2019-01-22T13:41:57.401Z,59.70
2019-01-22T13:44:26.838Z,57.87
2019-01-22T13:47:00.975Z,58.37
2019-01-22T13:49:30.354Z,70.77
2019-01-22T13:52:00.409Z,58.05
2019-01-22T13:54:34.865Z,70.23
2019-01-22T13:57:05.110Z,56.07
2019-01-22T13:59:35.054Z,55.35
2019-01-22T14:02:04.702Z,58.27
2019-01-22T14:04:34.140Z,56.15
2019-01-22T14:07:03.897Z,59.37
2019-01-22T14:09:33.569Z,62.30
2019-01-22T14:12:03.064Z,61.60
2019-01-22T14:14:32.504Z,57.17
2019-01-22T14:17:02.262Z,60.33
2019-01-22T14:19:35.873Z,64.57
2019-01-22T14:22:06.500Z,58.70
2019-01-22T14:24:35.816Z,59.83
2019-01-22T14:27:05.460Z,56.00
2019-01-22T14:29:37.160Z,64.72
2019-01-22T14:32:06.585Z,71.23
2019-01-22T14:34:38.845Z,113.77
2019-01-22T14:37:16.683Z,78.53
2019-01-22T14:39:51.849Z,64.55
2019-01-22T14:42:26.550Z,68.42
2019-01-22T14:44:55.957Z,68.17
2019-01-22T14:47:25.356Z,62.67
2019-01-22T14:49:56.070Z,67.33
2019-01-22T14:52:27.420Z,63.83
2019-01-22T14:54:56.805Z,65.03
2019-01-22T14:57:26.991Z,64.37
2019-01-22T14:59:56.552Z,65.37
2019-01-22T15:02:26.113Z,63.37
2019-01-22T15:04:55.743Z,58.80
2019-01-22T15:07:25.474Z,62.67
2019-01-22T15:09:55.029Z,64.50
2019-01-22T15:12:24.425Z,59.50
2019-01-22T15:14:54.334Z,59.80
2019-01-22T15:17:24.697Z,72.07
2019-01-22T15:19:56.942Z,59.10
2019-01-22T15:22:27.341Z,60.23
2019-01-22T15:24:57.545Z,67.83
2019-01-22T15:27:26.917Z,66.37
2019-01-22T15:29:56.812Z,64.47
2019-01-22T15:32:26.310Z,72.67
2019-01-22T15:34:55.686Z,64.67
2019-01-22T15:37:25.127Z,68.33
2019-01-22T15:39:56.486Z,61.53
2019-01-22T15:42:25.985Z,58.48
2019-01-22T15:44:56.593Z,81.20
2019-01-22T15:47:25.909Z,62.27
2019-01-22T15:49:56.272Z,67.97
2019-01-22T15:52:25.835Z,93.05
2019-01-22T15:54:55.209Z,59.03
2019-01-22T15:57:24.617Z,63.83
2019-01-22T15:59:54.547Z,102.03
2019-01-22T16:02:23.953Z,80.97
2019-01-22T16:04:54.115Z,75.67
2019-01-22T16:07:24.261Z,64.33
2019-01-22T16:09:53.612Z,67.07
2019-01-22T16:12:22.998Z,62.98
2019-01-22T16:14:55.877Z,62.60
2019-01-22T16:17:29.349Z,72.40
2019-01-22T16:19:58.712Z,68.83
2019-01-22T16:22:31.343Z,70.50
2019-01-22T16:25:00.798Z,65.03
2019-01-22T16:27:33.540Z,66.53
2019-01-22T16:30:05.889Z,68.43
2019-01-22T16:32:39.531Z,75.65
2019-01-22T16:35:10.856Z,67.90
2019-01-22T16:37:49.433Z,71.57
2019-01-22T16:40:19.209Z,69.53
2019-01-22T16:42:49.059Z,81.23
2019-01-22T16:45:21.949Z,68.55
2019-01-22T16:47:51.472Z,74.70
2019-01-22T16:50:22.186Z,68.43
2019-01-22T16:52:54.014Z,67.43
2019-01-22T16:55:31.553Z,67.67
2019-01-22T16:58:00.948Z,61.55
2019-01-22T17:00:35.656Z,70.37
2019-01-22T17:03:06.495Z,68.92
2019-01-22T17:05:35.929Z,63.43
2019-01-22T17:08:06.444Z,76.43
2019-01-22T17:10:36.569Z,68.03
2019-01-22T17:13:08.688Z,81.47
2019-01-22T17:15:38.633Z,69.25
2019-01-22T17:18:13.293Z,74.43
2019-01-22T17:20:47.802Z,79.50
2019-01-22T17:23:16.625Z,77.40
2019-01-22T17:25:44.877Z,98.20
2019-01-22T17:28:15.584Z,78.70
2019-01-22T17:30:45.850Z,71.57
2019-01-22T17:33:32.275Z,78.67
2019-01-22T17:36:01.746Z,85.27
2019-01-22T17:38:31.173Z,66.97
2019-01-22T17:41:01.284Z,84.90
2019-01-22T17:43:30.684Z,83.73
2019-01-22T17:46:00.533Z,93.10
2019-01-22T17:48:30.004Z,81.20
2019-01-22T17:51:02.023Z,84.47
2019-01-22T17:53:31.388Z,96.53
2019-01-22T17:56:00.829Z,100.90
2019-01-22T17:58:30.353Z,80.83
2019-01-22T18:01:02.714Z,87.43
2019-01-22T18:03:32.140Z,90.00
2019-01-22T18:06:01.525Z,83.20
2019-01-22T18:08:31.032Z,75.63
2019-01-22T18:11:00.425Z,93.27
2019-01-22T18:13:29.889Z,90.13
2019-01-22T18:15:59.509Z,84.43
2019-01-22T18:18:29.587Z,94.90
2019-01-22T18:21:00.396Z,89.60
2019-01-22T18:23:31.914Z,78.57
2019-01-22T18:26:01.317Z,103.93
2019-01-22T18:28:31.008Z,90.03
2019-01-22T18:31:00.452Z,98.37
2019-01-22T18:33:33.050Z,91.60
2019-01-22T18:36:04.064Z,100.07
2019-01-22T18:38:38.039Z,98.07
2019-01-22T18:41:07.429Z,79.47
2019-01-22T18:43:40.902Z,99.47
2019-01-22T18:46:13.686Z,103.03
2019-01-22T18:48:43.052Z,94.83
2019-01-22T18:51:15.433Z,89.83
2019-01-22T18:53:47.172Z,95.47
2019-01-22T18:56:17.290Z,97.82
2019-01-22T18:58:48.593Z,93.43
2019-01-22T19:01:18.838Z,96.67
2019-01-22T19:03:48.472Z,94.17
2019-01-22T19:06:21.162Z,97.40
2019-01-22T19:08:51.668Z,83.53
2019-01-22T19:11:21.756Z,82.17
2019-01-22T19:13:53.899Z,85.10
2019-01-22T19:16:26.610Z,89.32
2019-01-22T19:18:55.973Z,81.60
2019-01-22T19:21:29.581Z,73.53
2019-01-22T19:23:59.592Z,66.13
2019-01-22T19:26:29.493Z,87.00
2019-01-22T19:29:00.523Z,95.53
2019-01-22T19:31:31.106Z,82.40
2019-01-22T19:34:03.254Z,99.17
2019-01-22T19:36:37.830Z,125.00
2019-01-22T19:39:13.620Z,100.55
2019-01-22T19:41:43.685Z,100.00
2019-01-22T19:44:13.400Z,93.72
2019-01-22T19:46:42.836Z,109.00
2019-01-22T19:49:13.628Z,94.00
2019-01-22T19:51:43.105Z,101.85
2019-01-22T19:54:12.584Z,98.80
2019-01-22T19:56:42.026Z,77.80
2019-01-22T19:59:11.600Z,105.27
2019-01-22T20:01:41.609Z,107.05
2019-01-22T20:04:11.074Z,99.63
2019-01-22T20:06:41.086Z,99.30
2019-01-22T20:09:11.596Z,97.57
2019-01-22T20:11:41.027Z,102.10
2019-01-22T20:14:10.573Z,101.37
2019-01-22T20:16:44.409Z,95.70
2019-01-22T20:19:13.792Z,103.90
2019-01-22T20:21:44.054Z,92.90
2019-01-22T20:24:17.004Z,105.30
2019-01-22T20:26:44.974Z,89.57
2019-01-22T20:29:14.760Z,80.87
2019-01-22T20:31:46.786Z,100.20
2019-01-22T20:34:17.257Z,94.13
2019-01-22T20:36:46.718Z,87.97
2019-01-22T20:39:17.749Z,88.47
2019-01-22T20:41:47.265Z,101.60
2019-01-22T20:44:18.520Z,96.57
2019-01-22T20:46:48.420Z,81.83
2019-01-22T20:49:19.763Z,91.15
2019-01-22T20:51:50.014Z,94.52
2019-01-22T20:54:21.500Z,95.10
2019-01-22T20:56:53.694Z,97.80
2019-01-22T20:59:23.909Z,95.75
2019-01-22T21:01:54.125Z,83.77
2019-01-22T21:04:25.165Z,98.67
2019-01-22T21:06:55.149Z,94.43
2019-01-22T21:09:25.286Z,88.97
2019-01-22T21:11:54.871Z,81.63
2019-01-22T21:14:24.299Z,89.40
2019-01-22T21:16:53.789Z,89.77
2019-01-22T21:19:23.745Z,83.90
2019-01-22T21:21:53.244Z,88.37
2019-01-22T21:24:23.190Z,91.97
2019-01-22T21:26:54.555Z,80.27
2019-01-22T21:29:24.097Z,72.95
2019-01-22T21:31:54.919Z,92.90
2019-01-22T21:34:24.298Z,93.60
2019-01-22T21:36:55.260Z,105.90
2019-01-22T21:39:28.835Z,91.20
2019-01-22T21:41:58.485Z,97.03
2019-01-22T21:44:27.964Z,83.57
2019-01-22T21:46:59.563Z,87.97
2019-01-22T21:49:31.820Z,90.87
2019-01-22T21:52:03.846Z,97.78
2019-01-22T21:54:34.201Z,86.55
2019-01-22T21:57:05.482Z,77.23
2019-01-22T21:59:38.007Z,73.17
2019-01-22T22:02:10.198Z,83.17
2019-01-22T22:04:44.506Z,80.27
2019-01-22T22:07:17.292Z,77.97
2019-01-22T22:09:46.976Z,86.50
2019-01-22T22:12:18.553Z,80.03
2019-01-22T22:14:52.767Z,77.13
2019-01-22T22:17:24.205Z,87.48
2019-01-22T22:19:53.501Z,79.10
2019-01-22T22:22:24.394Z,79.97
2019-01-22T22:24:59.001Z,81.50
2019-01-22T22:27:35.384Z,81.67
2019-01-22T22:30:07.212Z,73.27
2019-01-22T22:32:37.027Z,76.37
2019-01-22T22:35:10.325Z,85.17
2019-01-22T22:37:39.735Z,66.53
2019-01-22T22:40:10.259Z,68.28
2019-01-22T22:42:40.575Z,76.07
2019-01-22T22:45:14.046Z,70.77
2019-01-22T22:47:45.812Z,97.93
2019-01-22T22:50:21.461Z,71.42
2019-01-22T22:52:52.671Z,64.67
2019-01-22T22:55:25.093Z,67.53
2019-01-22T22:57:57.771Z,77.53
2019-01-22T23:00:58.260Z,79.58
2019-01-22T23:03:27.892Z,67.53
2019-01-22T23:05:57.485Z,77.73
2019-01-22T23:08:32.394Z,76.07
2019-01-22T23:11:01.498Z,80.93
2019-01-22T23:13:31.272Z,72.47
2019-01-22T23:16:01.168Z,80.40
2019-01-22T23:18:34.202Z,78.40
2019-01-22T23:21:05.454Z,71.63
2019-01-22T23:23:37.368Z,87.00
2019-01-22T23:26:06.972Z,72.17
2019-01-22T23:28:36.361Z,71.30
2019-01-22T23:31:05.793Z,87.33
2019-01-22T23:33:35.189Z,85.40
2019-01-22T23:36:08.104Z,83.83
2019-01-22T23:38:39.357Z,91.87
2019-01-22T23:41:10.517Z,72.60
2019-01-22T23:43:43.146Z,71.43
2019-01-22T23:46:12.544Z,93.93
2019-01-22T23:48:42.130Z,71.60
2019-01-22T23:51:13.619Z,76.60
2019-01-22T23:53:44.317Z,90.10
2019-01-22T23:56:15.420Z,76.87
2019-01-22T23:58:45.052Z,102.80
